Time;durP1;ratioP1;P1;durP2;ratioP2;P2;SDS_P1;SDS_P2;PMS_P1;PMS_P2;Temp;Humidity;BMP_temperature;BMP_pressure;BME280_temperature;BME280_humidity;BME280_pressure;Samples;Min_cycle;Max_cycle;Signal;HPM_P1;HPM_P2
2022/11/15 00:10:17;;;;;;;;;;;1.80;99.90;;;;;;20883231;28;20364;-60
2022/11/15 00:20:38;;;;;;;;;;;1.70;99.90;;;;;;20892535;28;19909;-58
2022/11/15 00:31:06;;;;;;;;;;;1.70;99.90;;;;;;20883410;28;20006;-58
2022/11/15 00:41:28;;;;;;;;;;;1.80;99.90;;;;;;20889418;28;20012;-59
2022/11/15 00:51:48;;;;;;;;;;;1.80;99.90;;;;;;20882475;28;19913;-59
2022/11/15 01:02:09;;;;;;;;;;;1.70;99.90;;;;;;20887082;28;19917;-59
2022/11/15 01:12:30;;;;;;;;;;;1.80;99.90;;;;;;20870376;28;19917;-59
2022/11/15 01:22:51;;;;;;;;;;;1.60;99.90;;;;;;20878399;28;20443;-59
2022/11/15 01:33:11;;;;;;;;;;;1.50;99.90;;;;;;20869719;28;20199;-59
2022/11/15 01:43:34;;;;;;;;;;;1.40;99.90;;;;;;20873923;28;19921;-59
2022/11/15 01:53:58;;;;;;;;;;;1.50;99.90;;;;;;20881544;28;20238;-60
2022/11/15 02:04:26;;;;;;;;;;;1.50;99.90;;;;;;20877088;28;19916;-59
2022/11/15 02:14:50;;;;;;;;;;;1.60;99.90;;;;;;20884170;28;19917;-59
2022/11/15 02:25:16;;;;;;;;;;;1.60;99.90;;;;;;20879138;28;19912;-58
2022/11/15 02:35:42;;;;;;;;;;;1.40;99.90;;;;;;20877677;28;20152;-59
2022/11/15 02:46:10;;;;;;;;;;;1.50;99.90;;;;;;20871682;28;19909;-59
2022/11/15 02:56:31;;;;;;;;;;;1.70;99.90;;;;;;20867155;28;19920;-59
2022/11/15 03:07:04;;;;;;;;;;;1.50;99.90;;;;;;20881041;28;19963;-58
2022/11/15 03:17:37;;;;;;;;;;;1.50;99.90;;;;;;20877258;28;20498;-59
2022/11/15 03:27:58;;;;;;;;;;;1.60;99.90;;;;;;20866106;28;20042;-59
2022/11/15 03:38:21;;;;;;;;;;;1.60;99.90;;;;;;20875031;28;19967;-57
2022/11/15 03:48:44;;;;;;;;;;;1.40;99.90;;;;;;20870084;28;19962;-60
2022/11/15 03:59:05;;;;;;;;;;;1.50;99.90;;;;;;20872302;28;20297;-59
2022/11/15 04:09:26;;;;;;;;;;;1.40;99.90;;;;;;20877979;28;19941;-58
2022/11/15 04:30:27;;;;;;;;;;;1.30;99.90;;;;;;20889358;28;19913;-58
2022/11/15 04:40:48;;;;;;;;;;;1.30;99.90;;;;;;20882289;28;19917;-59
2022/11/15 04:51:08;;;;;;;;;;;1.20;99.90;;;;;;20872824;28;19912;-59
2022/11/15 05:01:29;;;;;;;;;;;1.30;99.90;;;;;;20889939;28;20277;-60
2022/11/15 05:11:50;;;;;;;;;;;1.40;99.90;;;;;;20884647;28;19917;-60
2022/11/15 05:22:11;;;;;;;;;;;1.50;99.90;;;;;;20878830;28;19909;-59
2022/11/15 05:32:32;;;;;;;;;;;1.60;99.90;;;;;;20871001;28;19921;-58
2022/11/15 05:42:54;;;;;;;;;;;1.60;99.90;;;;;;20860228;28;20776;-60
2022/11/15 05:53:23;;;;;;;;;;;1.60;99.90;;;;;;20895970;28;20352;-60
2022/11/15 06:03:44;;;;;;;;;;;1.50;99.90;;;;;;20883318;28;19912;-58
2022/11/15 06:14:05;;;;;;;;;;;1.70;99.90;;;;;;20874984;28;20160;-59
2022/11/15 06:24:26;;;;;;;;;;;1.80;99.90;;;;;;20877867;28;19959;-59
2022/11/15 06:34:47;;;;;;;;;;;1.90;99.90;;;;;;20873823;28;19921;-58
2022/11/15 06:45:07;;;;;;;;;;;2.00;99.90;;;;;;20876097;28;20277;-59
2022/11/15 06:55:32;;;;;;;;;;;2.30;99.90;;;;;;20876785;28;19970;-59
2022/11/15 07:05:54;;;;;;;;;;;2.50;99.90;;;;;;20876096;28;20266;-59
2022/11/15 07:16:15;;;;;;;;;;;2.60;99.90;;;;;;20869850;28;20034;-59
2022/11/15 07:26:36;;;;;;;;;;;2.80;99.90;;;;;;20879783;28;19912;-58
2022/11/15 07:36:56;;;;;;;;;;;2.90;99.90;;;;;;20871531;28;19921;-59
2022/11/15 07:47:17;;;;;;;;;;;3.20;99.90;;;;;;20896010;28;19908;-58
2022/11/15 07:57:38;;;;;;;;;;;3.60;99.90;;;;;;20886645;28;19913;-58
2022/11/15 08:07:58;;;;;;;;;;;4.00;99.90;;;;;;20879641;28;19909;-58
2022/11/15 08:18:19;;;;;;;;;;;4.40;99.90;;;;;;20876871;28;19962;-60
2022/11/15 08:28:41;;;;;;;;;;;4.70;99.90;;;;;;20879846;28;19909;-59
2022/11/15 08:39:02;;;;;;;;;;;5.10;99.90;;;;;;20887306;28;20243;-59
2022/11/15 08:49:23;;;;;;;;;;;5.80;99.90;;;;;;20886229;28;20378;-59
2022/11/15 08:59:44;;;;;;;;;;;6.40;99.90;;;;;;20889443;28;20247;-58
2022/11/15 09:10:07;;;;;;;;;;;6.50;99.90;;;;;;20882809;28;20439;-59
2022/11/15 09:20:28;;;;;;;;;;;6.50;99.90;;;;;;20884143;28;19909;-58
2022/11/15 09:30:48;;;;;;;;;;;6.70;99.90;;;;;;20882591;28;19970;-59
2022/11/15 09:41:13;;;;;;;;;;;7.00;99.90;;;;;;20876067;28;19917;-58
2022/11/15 09:51:36;;;;;;;;;;;6.80;99.90;;;;;;20875585;28;20499;-58
2022/11/15 10:01:54;;;;;;;;;;;6.50;99.90;;;;;;20867588;28;19909;-58
2022/11/15 10:11:57;;;;;;;;;;;6.10;99.90;;;;;;20880706;28;19913;-58
2022/11/15 10:21:59;;;;;;;;;;;6.00;99.90;;;;;;20876054;28;20434;-59
2022/11/15 10:32:01;;;;;;;;;;;6.20;99.90;;;;;;20875673;28;19925;-52
2022/11/15 10:42:22;;;;;;;;;;;6.50;99.90;;;;;;20873220;28;19912;-59
2022/11/15 10:52:25;;;;;;;;;;;6.70;99.90;;;;;;20873237;28;19920;-55
2022/11/15 11:02:29;;;;;;;;;;;6.80;99.90;;;;;;20878308;28;19954;-51
2022/11/15 11:12:32;;;;;;;;;;;6.80;99.90;;;;;;20876332;28;19970;-59
2022/11/15 11:22:42;;;;;;;;;;;7.00;99.90;;;;;;20872440;28;19931;-58
2022/11/15 11:32:44;;;;;;;;;;;7.00;99.90;;;;;;20880089;28;19916;-58
2022/11/15 11:43:05;;;;;;;;;;;7.10;99.90;;;;;;20862515;28;20315;-52
2022/11/15 11:53:14;;;;;;;;;;;6.70;99.90;;;;;;20856487;28;19916;-53
2022/11/15 12:03:25;;;;;;;;;;;6.80;99.90;;;;;;20874375;28;19913;-53
2022/11/15 12:13:33;;;;;;;;;;;6.70;99.90;;;;;;20867507;28;19913;-52
2022/11/15 12:23:41;;;;;;;;;;;6.70;99.90;;;;;;20869189;28;19913;-52
2022/11/15 12:33:54;;;;;;;;;;;6.40;99.90;;;;;;20891285;28;19916;-52
2022/11/15 12:43:58;;;;;;;;;;;6.40;99.90;;;;;;20871115;28;19917;-60
2022/11/15 12:54:20;;;;;;;;;;;7.00;99.90;;;;;;20878405;28;20317;-59
2022/11/15 13:04:25;;;;;;;;;;;6.80;99.90;;;;;;20881951;28;19967;-59
2022/11/15 13:14:37;;;;;;;;;;;6.40;99.90;;;;;;20888224;28;19913;-49
2022/11/15 13:24:39;;;;;;;;;;;6.20;99.90;;;;;;20884224;28;19909;-59
2022/11/15 13:34:46;;;;;;;;;;;6.40;99.90;;;;;;20872455;28;19913;-52
2022/11/15 13:44:57;;;;;;;;;;;6.60;99.90;;;;;;20886459;28;20355;-50
2022/11/15 13:54:59;;;;;;;;;;;6.60;99.90;;;;;;20877852;28;19921;-54
2022/11/15 14:05:13;;;;;;;;;;;6.60;99.90;;;;;;20882358;28;19912;-60
2022/11/15 14:15:27;;;;;;;;;;;6.60;99.90;;;;;;20861930;28;19916;-53
2022/11/15 14:25:33;;;;;;;;;;;6.70;99.90;;;;;;20883187;28;19916;-53
2022/11/15 14:35:38;;;;;;;;;;;6.60;99.90;;;;;;20896309;28;19978;-60
2022/11/15 14:45:40;;;;;;;;;;;6.50;99.90;;;;;;20877326;28;19913;-57
2022/11/15 14:55:43;;;;;;;;;;;6.30;99.90;;;;;;20874518;28;19994;-60
2022/11/15 15:05:45;;;;;;;;;;;6.20;99.90;;;;;;20876565;28;20271;-60
2022/11/15 15:15:48;;;;;;;;;;;6.20;99.90;;;;;;20877318;28;20328;-54
2022/11/15 15:25:50;;;;;;;;;;;6.10;99.90;;;;;;20867935;28;20039;-60
2022/11/15 15:35:53;;;;;;;;;;;5.90;99.90;;;;;;20872341;28;19917;-61
2022/11/15 15:45:55;;;;;;;;;;;5.80;99.90;;;;;;20875791;28;19962;-53
2022/11/15 15:55:57;;;;;;;;;;;5.70;99.90;;;;;;20874824;28;19918;-50
2022/11/15 16:06:00;;;;;;;;;;;5.70;99.90;;;;;;20877591;28;19912;-52
2022/11/15 16:16:21;;;;;;;;;;;5.70;99.90;;;;;;20908556;28;19917;-59
2022/11/15 16:26:25;;;;;;;;;;;5.70;99.90;;;;;;20884829;28;20424;-60
2022/11/15 16:36:30;;;;;;;;;;;5.70;99.90;;;;;;20875621;28;19912;-60
2022/11/15 16:46:32;;;;;;;;;;;5.80;99.90;;;;;;20887290;28;20294;-55
2022/11/15 16:56:34;;;;;;;;;;;5.90;99.90;;;;;;20882355;28;20338;-51
2022/11/15 17:06:39;;;;;;;;;;;5.80;99.90;;;;;;20881106;28;19909;-54
2022/11/15 17:16:43;;;;;;;;;;;5.90;99.90;;;;;;20873037;28;19927;-60
2022/11/15 17:26:45;;;;;;;;;;;5.80;99.90;;;;;;20872585;28;19913;-51
2022/11/15 17:36:48;;;;;;;;;;;5.70;99.90;;;;;;20879279;28;20271;-55
2022/11/15 17:46:50;;;;;;;;;;;5.70;99.90;;;;;;20875558;28;19971;-60
2022/11/15 17:56:52;;;;;;;;;;;5.70;99.90;;;;;;20881746;28;19970;-56
2022/11/15 18:06:55;;;;;;;;;;;5.60;99.90;;;;;;20877815;28;19912;-60
2022/11/15 18:16:57;;;;;;;;;;;5.60;99.90;;;;;;20876907;28;19966;-60
2022/11/15 18:27:00;;;;;;;;;;;5.50;99.90;;;;;;20863028;28;20226;-61
2022/11/15 18:37:03;;;;;;;;;;;5.60;99.90;;;;;;20882099;28;19916;-55
2022/11/15 18:47:05;;;;;;;;;;;5.60;99.90;;;;;;20881956;28;19912;-62
2022/11/15 18:57:07;;;;;;;;;;;5.70;99.90;;;;;;20874257;28;19917;-61
2022/11/15 19:07:10;;;;;;;;;;;5.80;99.90;;;;;;20866249;28;19946;-62
2022/11/15 19:17:13;;;;;;;;;;;5.80;99.90;;;;;;20879193;28;19936;-62
2022/11/15 19:27:15;;;;;;;;;;;5.80;99.90;;;;;;20870005;28;19913;-61
2022/11/15 19:37:17;;;;;;;;;;;5.80;99.90;;;;;;20876476;28;19938;-61
2022/11/15 19:47:20;;;;;;;;;;;5.80;99.90;;;;;;20885086;28;19963;-55
2022/11/15 19:57:22;;;;;;;;;;;5.80;99.90;;;;;;20868930;28;19916;-60
2022/11/15 20:07:25;;;;;;;;;;;5.80;99.90;;;;;;20860753;28;19912;-61
2022/11/15 20:17:28;;;;;;;;;;;5.80;99.90;;;;;;20888337;28;19983;-60
2022/11/15 20:27:30;;;;;;;;;;;5.80;99.90;;;;;;20867290;28;19966;-62
2022/11/15 20:37:32;;;;;;;;;;;5.80;99.90;;;;;;20821637;28;1342647;-61
2022/11/15 20:47:35;;;;;;;;;;;5.80;99.90;;;;;;20885498;28;19917;-61
2022/11/15 20:57:37;;;;;;;;;;;5.90;99.90;;;;;;20881560;28;19912;-61
2022/11/15 21:07:40;;;;;;;;;;;5.90;99.90;;;;;;20881656;28;19912;-61
2022/11/15 21:17:43;;;;;;;;;;;5.90;99.90;;;;;;20873997;28;19974;-60
2022/11/15 21:27:45;;;;;;;;;;;5.90;99.90;;;;;;20884741;28;19917;-62
2022/11/15 21:37:47;;;;;;;;;;;5.90;99.90;;;;;;20883323;28;19920;-61
2022/11/15 21:47:50;;;;;;;;;;;6.00;99.90;;;;;;20883551;28;19913;-51
2022/11/15 21:57:52;;;;;;;;;;;6.00;99.90;;;;;;20883678;28;19938;-58
2022/11/15 22:07:55;;;;;;;;;;;6.00;99.90;;;;;;20879485;28;19967;-52
2022/11/15 22:17:57;;;;;;;;;;;6.10;99.90;;;;;;20880022;28;19912;-50
2022/11/15 22:27:59;;;;;;;;;;;6.10;99.90;;;;;;20878342;28;19913;-61
2022/11/15 22:38:02;;;;;;;;;;;6.10;99.90;;;;;;20878562;28;19963;-62
2022/11/15 22:48:04;;;;;;;;;;;6.00;99.90;;;;;;20866314;28;19908;-60
2022/11/15 22:58:09;;;;;;;;;;;6.00;99.90;;;;;;20874208;28;19912;-61
2022/11/15 23:08:13;;;;;;;;;;;6.00;99.90;;;;;;20869635;28;19916;-61
2022/11/15 23:18:15;;;;;;;;;;;6.10;99.90;;;;;;20870528;28;19924;-50
2022/11/15 23:28:17;;;;;;;;;;;6.10;99.90;;;;;;20873154;28;19932;-61
2022/11/15 23:38:20;;;;;;;;;;;6.10;99.90;;;;;;20871651;28;19917;-51
2022/11/15 23:48:22;;;;;;;;;;;6.20;99.90;;;;;;20875717;28;19909;-60
2022/11/15 23:58:24;;;;;;;;;;;6.20;99.90;;;;;;20866922;28;19913;-61
